createdAt,value
2022-10-22T00:01:40.564Z,13.90
2022-10-22T00:04:07.421Z,12.30
2022-10-22T00:06:34.343Z,14.98
2022-10-22T00:09:01.101Z,10.48
2022-10-22T00:11:27.695Z,13.40
2022-10-22T00:13:54.381Z,13.02
2022-10-22T00:16:21.507Z,13.38
2022-10-22T00:18:48.073Z,12.52
2022-10-22T00:21:14.820Z,9.82
2022-10-22T00:23:42.882Z,10.52
2022-10-22T00:26:10.393Z,11.23
2022-10-22T00:28:37.538Z,16.08
2022-10-22T00:31:04.725Z,18.88
2022-10-22T00:33:31.403Z,9.23
2022-10-22T00:35:58.171Z,14.57
2022-10-22T00:38:24.842Z,13.18
2022-10-22T00:40:51.543Z,13.45
2022-10-22T00:43:19.510Z,11.93
2022-10-22T00:45:46.316Z,10.32
2022-10-22T00:48:33.565Z,13.18
2022-10-22T00:51:04.185Z,14.35
2022-10-22T00:53:39.521Z,19.10
2022-10-22T00:56:06.725Z,10.00
2022-10-22T00:58:36.656Z,12.18
2022-10-22T01:01:04.796Z,15.43
2022-10-22T01:03:32.181Z,10.15
2022-10-22T01:06:00.854Z,12.70
2022-10-22T01:08:33.628Z,11.25
2022-10-22T01:11:21.689Z,12.07
2022-10-22T01:14:06.769Z,10.68
2022-10-22T01:17:03.990Z,10.88
2022-10-22T01:19:30.493Z,12.23
2022-10-22T01:22:02.115Z,12.45
2022-10-22T01:24:57.452Z,12.57
2022-10-22T01:27:31.640Z,11.68
2022-10-22T01:30:10.292Z,21.40
2022-10-22T01:33:05.298Z,11.95
2022-10-22T01:35:36.916Z,11.50
2022-10-22T01:38:08.638Z,12.85
2022-10-22T01:40:36.546Z,11.13
2022-10-22T01:43:09.554Z,13.30
2022-10-22T01:45:41.351Z,12.88
2022-10-22T01:48:26.125Z,11.70
2022-10-22T01:51:08.216Z,8.55
2022-10-22T01:53:52.470Z,12.10
2022-10-22T01:56:18.943Z,9.98
2022-10-22T01:58:56.116Z,10.65
2022-10-22T02:01:50.487Z,11.02
2022-10-22T02:04:41.623Z,10.95
2022-10-22T02:07:11.396Z,12.60
2022-10-22T02:09:40.154Z,15.25
2022-10-22T02:12:09.206Z,9.60
2022-10-22T02:14:40.118Z,10.43
2022-10-22T02:17:12.223Z,10.00
2022-10-22T02:19:54.786Z,11.35
2022-10-22T02:22:21.866Z,11.07
2022-10-22T02:24:49.406Z,9.63
2022-10-22T02:27:33.019Z,10.18
2022-10-22T02:30:11.480Z,12.02
2022-10-22T02:33:13.038Z,15.48
2022-10-22T02:35:41.853Z,9.90
2022-10-22T02:38:09.629Z,12.82
2022-10-22T02:40:36.647Z,10.25
2022-10-22T02:43:05.818Z,14.43
2022-10-22T02:45:33.870Z,10.63
2022-10-22T02:48:00.797Z,9.82
2022-10-22T02:50:27.347Z,12.82
2022-10-22T02:52:53.902Z,10.07
2022-10-22T02:55:20.502Z,9.88
2022-10-22T02:57:47.121Z,16.85
2022-10-22T03:00:14.625Z,11.25
2022-10-22T03:02:41.323Z,11.73
2022-10-22T03:05:08.441Z,11.07
2022-10-22T03:07:35.539Z,13.70
2022-10-22T03:10:02.155Z,9.45
2022-10-22T03:12:28.677Z,8.93
2022-10-22T03:14:55.242Z,9.60
2022-10-22T03:17:21.813Z,10.73
2022-10-22T03:19:48.325Z,16.08
2022-10-22T03:22:24.059Z,12.52
2022-10-22T03:24:55.629Z,11.30
2022-10-22T03:27:23.101Z,9.02
2022-10-22T03:29:51.858Z,6.88
2022-10-22T03:32:19.134Z,9.52
2022-10-22T03:34:45.796Z,9.43
2022-10-22T03:37:12.763Z,14.18
2022-10-22T03:39:39.749Z,10.15
2022-10-22T03:42:07.438Z,9.75
2022-10-22T03:44:36.857Z,9.70
2022-10-22T03:47:03.518Z,10.50
2022-10-22T03:49:30.342Z,9.18
2022-10-22T03:51:57.117Z,10.38
2022-10-22T03:54:23.633Z,9.57
2022-10-22T03:56:50.186Z,10.57
2022-10-22T03:59:16.757Z,10.52
2022-10-22T04:01:43.398Z,10.50
2022-10-22T04:04:09.905Z,9.00
2022-10-22T04:06:36.563Z,31.25
2022-10-22T04:09:03.344Z,10.55
2022-10-22T04:11:29.917Z,16.30
2022-10-22T04:13:56.468Z,10.98
2022-10-22T04:16:25.181Z,8.00
2022-10-22T04:18:54.185Z,10.10
2022-10-22T04:21:20.791Z,12.70
2022-10-22T04:23:49.588Z,10.73
2022-10-22T04:26:17.610Z,12.40
2022-10-22T04:28:45.434Z,8.40
2022-10-22T04:31:14.904Z,11.13
2022-10-22T04:33:42.105Z,12.82
2022-10-22T04:36:13.546Z,8.60
2022-10-22T04:38:40.801Z,8.60
2022-10-22T04:41:10.853Z,8.02
2022-10-22T04:43:37.424Z,8.50
2022-10-22T04:46:04.212Z,7.35
2022-10-22T04:48:30.772Z,8.73
2022-10-22T04:50:58.970Z,9.90
2022-10-22T04:53:25.970Z,8.80
2022-10-22T04:55:52.496Z,12.38
2022-10-22T04:58:19.080Z,9.77
2022-10-22T05:00:45.668Z,9.73
2022-10-22T05:03:12.219Z,6.65
2022-10-22T05:05:38.795Z,9.05
2022-10-22T05:08:05.326Z,8.73
2022-10-22T05:10:31.842Z,12.60
2022-10-22T05:12:58.476Z,20.98
2022-10-22T05:15:24.996Z,8.77
2022-10-22T05:17:51.563Z,11.45
2022-10-22T05:20:18.241Z,8.55
2022-10-22T05:22:44.764Z,10.75
2022-10-22T05:25:12.219Z,9.73
2022-10-22T05:27:39.123Z,9.45
2022-10-22T05:30:06.496Z,10.48
2022-10-22T05:32:35.496Z,10.20
2022-10-22T05:35:02.077Z,9.40
2022-10-22T05:37:28.601Z,8.68
2022-10-22T05:40:06.513Z,6.78
2022-10-22T05:45:08.942Z,9.05
2022-10-22T05:47:35.471Z,7.65
2022-10-22T05:50:02.017Z,8.65
2022-10-22T05:52:28.551Z,8.52
2022-10-22T05:54:55.061Z,8.43
2022-10-22T05:57:21.643Z,16.23
2022-10-22T05:59:48.175Z,11.50
2022-10-22T06:02:14.760Z,10.13
2022-10-22T06:04:41.440Z,11.63
2022-10-22T06:07:11.245Z,7.30
2022-10-22T06:09:38.987Z,10.43
2022-10-22T06:12:09.155Z,12.50
2022-10-22T06:14:35.892Z,9.02
2022-10-22T06:17:02.461Z,24.20
2022-10-22T06:19:31.279Z,10.63
2022-10-22T06:21:57.838Z,8.80
2022-10-22T06:24:24.388Z,12.75
2022-10-22T06:26:52.115Z,9.15
2022-10-22T06:29:19.046Z,11.68
2022-10-22T06:31:45.575Z,10.88
2022-10-22T06:34:13.978Z,8.23
2022-10-22T06:36:42.702Z,8.23
2022-10-22T06:39:12.479Z,11.02
2022-10-22T06:41:40.571Z,7.55
2022-10-22T06:44:07.412Z,8.38
2022-10-22T06:46:33.960Z,7.43
2022-10-22T06:49:03.078Z,8.18
2022-10-22T06:51:30.211Z,8.48
2022-10-22T06:53:57.972Z,7.90
2022-10-22T06:56:26.901Z,7.22
2022-10-22T06:58:55.123Z,7.03
2022-10-22T07:01:27.545Z,8.95
2022-10-22T07:03:54.894Z,11.00
2022-10-22T07:06:23.008Z,10.23
2022-10-22T07:08:49.755Z,8.00
2022-10-22T07:11:21.896Z,12.98
2022-10-22T07:13:49.377Z,10.85
2022-10-22T07:16:17.073Z,8.32
2022-10-22T07:18:44.879Z,9.57
2022-10-22T07:21:12.592Z,7.80
2022-10-22T07:23:39.712Z,8.90
2022-10-22T07:26:07.543Z,8.68
2022-10-22T07:28:36.477Z,5.90
2022-10-22T07:31:03.118Z,6.50
2022-10-22T07:33:29.724Z,10.05
2022-10-22T07:36:01.681Z,6.57
2022-10-22T07:38:28.889Z,9.02
2022-10-22T07:40:55.784Z,10.20
2022-10-22T08:48:14.563Z,9.88
2022-10-22T08:50:46.168Z,9.30
2022-10-22T08:53:16.513Z,8.57
2022-10-22T08:55:43.738Z,12.57
2022-10-22T08:58:54.756Z,10.60
2022-10-22T09:01:28.443Z,7.47
2022-10-22T09:03:59.899Z,7.45
2022-10-22T09:06:29.197Z,10.65
2022-10-22T09:08:58.299Z,25.52
2022-10-22T09:11:42.306Z,9.30
2022-10-22T09:17:06.478Z,8.48
2022-10-22T09:19:43.627Z,6.68
2022-10-22T09:22:12.923Z,6.53
2022-10-22T09:24:48.091Z,11.20
2022-10-22T09:27:16.583Z,6.53
2022-10-22T09:29:44.737Z,7.53
2022-10-22T09:32:11.530Z,11.32
2022-10-22T09:34:38.503Z,7.00
2022-10-22T09:37:09.953Z,7.55
2022-10-22T09:39:48.569Z,11.43
2022-10-22T09:42:16.968Z,7.70
2022-10-22T09:44:47.760Z,7.55
2022-10-22T09:47:42.972Z,9.18
2022-10-22T09:50:37.008Z,8.70
2022-10-22T09:53:18.885Z,7.13
2022-10-22T09:55:51.302Z,10.63
2022-10-22T09:58:18.954Z,8.88
2022-10-22T10:00:51.987Z,8.98
2022-10-22T10:03:22.210Z,7.13
2022-10-22T10:05:52.445Z,10.15
2022-10-22T10:08:19.695Z,8.60
2022-10-22T10:10:55.525Z,9.32
2022-10-22T10:13:52.697Z,7.22
2022-10-22T10:16:25.262Z,11.18
2022-10-22T10:19:00.927Z,8.75
2022-10-22T10:21:52.302Z,7.10
2022-10-22T10:25:00.452Z,9.18
2022-10-22T10:27:35.447Z,9.27
2022-10-22T10:30:11.625Z,12.02
2022-10-22T10:32:50.087Z,9.70
2022-10-22T10:35:28.276Z,9.02
2022-10-22T10:38:11.400Z,8.55
2022-10-22T10:41:00.705Z,9.50
2022-10-22T10:43:41.654Z,8.88
2022-10-22T10:46:23.173Z,9.40
2022-10-22T10:48:53.234Z,7.65
2022-10-22T10:51:53.790Z,9.68
2022-10-22T10:54:30.641Z,9.55
2022-10-22T10:57:31.839Z,8.05
2022-10-22T11:00:20.108Z,7.93
2022-10-22T11:03:23.968Z,9.20
2022-10-22T11:05:58.051Z,8.02
2022-10-22T11:08:31.874Z,10.73
2022-10-22T11:11:08.638Z,9.80
2022-10-22T11:13:38.585Z,9.23
2022-10-22T11:16:17.003Z,10.20
2022-10-22T11:19:04.294Z,10.18
2022-10-22T11:21:30.814Z,16.35
2022-10-22T11:24:22.679Z,10.02
2022-10-22T11:26:55.969Z,7.53
2022-10-22T11:29:29.456Z,8.43
2022-10-22T11:31:59.626Z,7.65
2022-10-22T11:34:36.005Z,10.48
2022-10-22T11:37:05.134Z,12.25
2022-10-22T11:39:40.942Z,7.68
2022-10-22T11:42:12.068Z,8.38
2022-10-22T11:45:00.714Z,11.63
2022-10-22T11:47:34.878Z,8.90
2022-10-22T11:50:25.307Z,7.85
2022-10-22T11:53:16.002Z,7.43
2022-10-22T11:55:46.036Z,9.90
2022-10-22T11:58:34.050Z,10.15
2022-10-22T12:01:09.634Z,9.00
2022-10-22T12:03:41.165Z,7.40
2022-10-22T12:06:15.690Z,9.80
2022-10-22T12:08:47.081Z,9.60
2022-10-22T12:11:15.739Z,8.48
2022-10-22T12:14:19.975Z,8.10
2022-10-22T12:16:56.671Z,8.55
2022-10-22T12:19:25.882Z,7.53
2022-10-22T12:22:10.614Z,8.63
2022-10-22T12:24:41.424Z,8.10
2022-10-22T12:27:37.673Z,7.38
2022-10-22T12:30:29.827Z,8.75
2022-10-22T12:33:00.491Z,10.38
2022-10-22T12:35:30.262Z,7.82
2022-10-22T12:38:00.342Z,9.63
2022-10-22T12:40:33.766Z,13.45
2022-10-22T12:43:07.499Z,17.10
2022-10-22T12:45:35.800Z,9.98
2022-10-22T12:48:08.270Z,8.63
2022-10-22T12:50:39.455Z,11.63
2022-10-22T12:53:21.072Z,24.02
2022-10-22T12:55:50.088Z,10.50
2022-10-22T12:58:21.338Z,9.57
2022-10-22T13:00:48.972Z,13.05
2022-10-22T13:03:26.059Z,11.10
2022-10-22T13:05:52.598Z,9.38
2022-10-22T13:10:55.892Z,10.70
2022-10-22T13:13:39.047Z,9.10
2022-10-22T13:16:20.123Z,12.00
2022-10-22T13:18:48.487Z,9.60
2022-10-22T13:21:26.929Z,11.65
2022-10-22T13:23:58.945Z,11.13
2022-10-22T13:26:32.311Z,9.35
2022-10-22T13:29:01.271Z,11.77
2022-10-22T13:31:33.484Z,9.65
2022-10-22T13:34:09.829Z,9.48
2022-10-22T13:36:38.576Z,12.20
2022-10-22T13:39:08.891Z,10.95
2022-10-22T13:44:06.864Z,12.88
2022-10-22T13:46:33.889Z,12.00
2022-10-22T13:49:00.502Z,8.73
2022-10-22T13:51:37.480Z,10.07
2022-10-22T13:54:10.571Z,9.60
2022-10-22T13:56:37.165Z,9.93
2022-10-22T13:59:03.702Z,10.50
2022-10-22T14:01:30.726Z,14.27
2022-10-22T14:03:59.707Z,9.90
2022-10-22T14:06:31.267Z,9.23
2022-10-22T14:09:01.061Z,10.57
2022-10-22T14:11:28.316Z,13.13
2022-10-22T14:13:55.084Z,7.40
2022-10-22T14:16:24.451Z,11.57
2022-10-22T14:18:51.591Z,10.93
2022-10-22T14:21:18.787Z,9.02
2022-10-22T14:23:47.422Z,19.00
2022-10-22T14:26:33.722Z,9.15
2022-10-22T14:29:10.182Z,10.32
2022-10-22T14:34:07.067Z,7.95
2022-10-22T14:36:33.592Z,10.02
2022-10-22T14:39:00.202Z,7.88
2022-10-22T14:41:29.069Z,9.43
2022-10-22T14:43:56.042Z,9.05
2022-10-22T14:46:22.957Z,11.52
2022-10-22T14:48:49.736Z,8.07
2022-10-22T14:51:18.401Z,9.73
2022-10-22T14:53:45.671Z,11.05
2022-10-22T14:56:13.440Z,9.35
2022-10-22T14:58:41.032Z,9.80
2022-10-22T15:01:08.969Z,11.05
2022-10-22T15:03:36.246Z,10.95
2022-10-22T15:06:03.326Z,9.55
2022-10-22T15:08:30.419Z,8.63
2022-10-22T15:11:04.583Z,12.73
2022-10-22T15:13:32.259Z,14.90
2022-10-22T15:15:59.258Z,15.88
2022-10-22T15:18:26.887Z,14.13
2022-10-22T15:21:01.485Z,16.77
2022-10-22T15:23:28.789Z,12.77
2022-10-22T15:25:55.674Z,11.43
2022-10-22T15:28:22.681Z,12.00
2022-10-22T15:31:00.226Z,11.02
2022-10-22T15:33:28.544Z,11.93
2022-10-22T15:35:55.787Z,12.45
2022-10-22T15:38:27.599Z,11.85
2022-10-22T18:57:09.656Z,29.25
2022-10-22T18:59:36.290Z,18.45
2022-10-22T19:02:02.835Z,32.00
2022-10-22T19:04:36.573Z,22.13
2022-10-22T19:07:05.269Z,24.45
2022-10-22T19:09:31.995Z,22.52
2022-10-22T19:11:59.554Z,22.83
2022-10-22T19:14:26.152Z,19.77
2022-10-22T19:16:52.929Z,24.02
2022-10-22T19:19:21.465Z,26.70
2022-10-22T19:21:48.711Z,25.00
2022-10-22T19:24:18.061Z,23.95
2022-10-22T19:26:45.406Z,38.83
2022-10-22T19:29:12.272Z,31.70
2022-10-22T19:31:40.814Z,23.08
2022-10-22T19:34:07.407Z,20.02
2022-10-22T19:36:35.307Z,23.42
2022-10-22T19:39:03.631Z,21.05
2022-10-22T19:41:32.580Z,23.67
2022-10-22T19:44:00.568Z,24.55
2022-10-22T19:46:29.226Z,41.90
2022-10-22T19:48:57.378Z,27.33
2022-10-22T19:51:33.558Z,24.83
2022-10-22T19:56:28.886Z,24.70
2022-10-22T19:58:55.813Z,24.73
2022-10-22T20:01:23.067Z,25.17
2022-10-22T20:03:49.745Z,18.65
2022-10-22T20:06:17.784Z,24.33
2022-10-22T20:08:44.941Z,26.95
2022-10-22T20:11:22.952Z,27.27
2022-10-22T20:13:52.229Z,24.83
2022-10-22T20:16:23.102Z,26.40
2022-10-22T20:18:50.601Z,22.58
2022-10-22T20:21:19.368Z,19.80
2022-10-22T20:23:47.440Z,22.38
2022-10-22T20:26:14.345Z,20.75
2022-10-22T20:28:40.976Z,24.35
2022-10-22T20:31:16.998Z,20.35
2022-10-22T20:36:15.893Z,20.40
2022-10-22T20:38:43.424Z,21.90
2022-10-22T20:41:16.030Z,24.60
2022-10-22T20:43:46.914Z,20.40
2022-10-22T20:46:23.233Z,24.05
2022-10-22T20:48:55.421Z,24.55
2022-10-22T20:51:22.202Z,21.95
2022-10-22T20:53:48.768Z,20.48
2022-10-22T20:56:16.377Z,27.83
2022-10-22T20:58:48.001Z,21.45
2022-10-22T21:01:24.185Z,22.08
2022-10-22T21:03:52.817Z,25.80
2022-10-22T21:06:23.245Z,36.45
2022-10-22T21:08:51.193Z,23.73
2022-10-22T21:11:18.786Z,21.58
2022-10-22T21:13:45.368Z,24.38
2022-10-22T21:16:14.079Z,20.17
2022-10-22T21:18:40.755Z,20.00
2022-10-22T21:21:08.435Z,22.05
2022-10-22T21:23:36.211Z,20.67
2022-10-22T21:26:03.679Z,27.83
2022-10-22T21:28:35.289Z,40.03
2022-10-22T21:31:04.399Z,28.77
2022-10-22T21:33:31.076Z,20.70
2022-10-22T21:35:57.755Z,20.40
2022-10-22T21:38:25.316Z,23.25
2022-10-22T21:40:52.277Z,26.92
2022-10-22T21:43:19.163Z,20.90
2022-10-22T21:45:45.773Z,26.33
2022-10-22T21:48:15.593Z,29.85
2022-10-22T21:50:44.012Z,23.27
2022-10-22T21:53:12.100Z,27.10
2022-10-22T21:55:40.247Z,25.35
2022-10-22T21:58:07.618Z,21.50
2022-10-22T22:00:35.251Z,22.25
2022-10-22T22:03:01.860Z,21.20
2022-10-22T22:05:28.996Z,22.58
2022-10-22T22:07:55.576Z,25.73
2022-10-22T22:10:22.118Z,19.50
2022-10-22T22:12:51.316Z,21.65
2022-10-22T22:15:19.232Z,24.92
2022-10-22T22:17:45.791Z,23.05
2022-10-22T22:20:12.352Z,23.27
2022-10-22T22:22:39.123Z,21.90
2022-10-22T22:25:06.089Z,21.70
2022-10-22T22:27:32.646Z,21.38
2022-10-22T22:29:59.175Z,22.40
2022-10-22T22:32:25.792Z,20.45
2022-10-22T22:34:52.327Z,20.58
2022-10-22T22:37:18.852Z,26.13
2022-10-22T22:39:45.413Z,23.33
2022-10-22T22:42:11.951Z,20.15
2022-10-22T22:44:38.979Z,22.63
2022-10-22T22:47:05.566Z,20.88
2022-10-22T22:49:32.106Z,23.05
2022-10-22T22:51:58.663Z,29.58
2022-10-22T22:54:25.246Z,25.85
2022-10-22T22:56:51.806Z,22.25
2022-10-22T22:59:18.355Z,27.63
2022-10-22T23:01:48.610Z,19.83
2022-10-22T23:04:22.851Z,22.65
2022-10-22T23:06:50.119Z,22.83
2022-10-22T23:09:21.682Z,19.13
2022-10-22T23:11:48.388Z,25.88
2022-10-22T23:14:17.715Z,20.48
2022-10-22T23:16:49.668Z,20.90
2022-10-22T23:19:18.976Z,25.60
2022-10-22T23:21:48.458Z,23.25
2022-10-22T23:24:17.562Z,29.33
2022-10-22T23:26:46.357Z,21.85
2022-10-22T23:29:30.553Z,20.80
2022-10-22T23:32:01.315Z,24.05
2022-10-22T23:34:28.836Z,24.73
2022-10-22T23:36:56.589Z,23.50
2022-10-22T23:39:26.253Z,23.70
2022-10-22T23:41:53.238Z,25.70
2022-10-22T23:44:20.825Z,26.00
2022-10-22T23:46:47.399Z,22.83
2022-10-22T23:49:14.662Z,24.23
2022-10-22T23:51:41.694Z,21.70
2022-10-22T23:54:13.456Z,22.83
2022-10-22T23:56:40.049Z,24.08
2022-10-22T23:59:07.291Z,23.67
